Time;durP1;ratioP1;P1;durP2;ratioP2;P2;SDS_P1;SDS_P2;PMS_P1;PMS_P2;Temp;Humidity;BMP_temperature;BMP_pressure;BME280_temperature;BME280_humidity;BME280_pressure;Samples;Min_cycle;Max_cycle;Signal;HPM_P1;HPM_P2
2022/11/24 00:01:18;;;;;;;17.52;3.65;;;;;;;6.18;100.00;98124.66;5054217;28;20634;-58
2022/11/24 00:03:50;;;;;;;18.95;4.05;;;;;;;6.06;100.00;98124.34;5049574;28;20063;-58
2022/11/24 00:06:17;;;;;;;17.45;4.00;;;;;;;5.98;100.00;98124.47;5048019;28;21061;-58
2022/11/24 00:08:44;;;;;;;22.75;4.30;;;;;;;5.98;100.00;98120.97;5044639;28;20032;-58
2022/11/24 00:11:16;;;;;;;18.58;3.38;;;;;;;6.02;100.00;98128.41;5046983;28;20507;-58
2022/11/24 00:13:42;;;;;;;16.33;3.33;;;;;;;6.03;100.00;98134.66;5047296;28;20048;-58
2022/11/24 00:16:19;;;;;;;20.35;3.08;;;;;;;6.00;100.00;98126.94;5051530;28;20070;-58
2022/11/24 00:18:47;;;;;;;13.73;3.67;;;;;;;5.96;100.00;98131.06;5045159;28;20025;-59
2022/11/24 00:21:17;;;;;;;17.00;3.00;;;;;;;5.87;100.00;98130.31;5052637;28;20048;-58
2022/11/24 00:23:43;;;;;;;19.92;3.97;;;;;;;5.78;100.00;98137.63;5048229;28;20021;-58
2022/11/24 00:26:12;;;;;;;16.85;3.00;;;;;;;5.66;100.00;98142.69;5044523;28;20476;-58
2022/11/24 00:28:39;;;;;;;14.70;2.75;;;;;;;5.51;100.00;98128.44;5047393;28;20029;-59
2022/11/24 00:31:33;;;;;;;14.30;2.83;;;;;;;5.46;100.00;98147.78;5045586;28;20036;-58
2022/11/24 00:34:01;;;;;;;22.48;2.90;;;;;;;5.34;100.00;98143.91;5050915;28;20045;-58
2022/11/24 00:36:28;;;;;;;18.63;2.90;;;;;;;5.28;100.00;98142.78;5033218;28;20025;-58
2022/11/24 00:39:16;;;;;;;21.42;2.75;;;;;;;5.37;100.00;98145.38;5051505;28;20021;-58
2022/11/24 00:41:42;;;;;;;14.80;3.25;;;;;;;5.42;100.00;98159.94;5047343;28;20044;-58
2022/11/24 00:44:08;;;;;;;16.92;3.17;;;;;;;5.35;100.00;98145.59;5048434;28;20397;-58
2022/11/24 00:46:33;;;;;;;18.95;2.95;;;;;;;5.35;100.00;98153.63;5043613;28;20021;-58
2022/11/24 00:48:59;;;;;;;11.77;2.38;;;;;;;5.33;100.00;98150.28;5043761;28;20033;-58
2022/11/24 00:51:26;;;;;;;15.73;3.05;;;;;;;5.38;100.00;98155.09;5046090;28;20028;-58
2022/11/24 00:53:54;;;;;;;15.88;2.47;;;;;;;5.37;100.00;98162.34;5040470;28;20044;-58
2022/11/24 00:56:19;;;;;;;28.00;2.70;;;;;;;5.40;100.00;98164.63;5045891;28;20029;-58
2022/11/24 00:58:45;;;;;;;17.27;2.53;;;;;;;5.41;100.00;98168.97;5052768;28;20043;-58
2022/11/24 01:01:16;;;;;;;23.63;3.13;;;;;;;5.41;100.00;98166.28;5046209;28;20032;-58
2022/11/24 01:03:41;;;;;;;26.08;3.20;;;;;;;5.43;100.00;98172.31;5046181;28;20036;-58
2022/11/24 01:06:16;;;;;;;15.60;3.13;;;;;;;5.51;100.00;98173.22;5047450;28;20024;-58
2022/11/24 01:08:55;;;;;;;9.23;2.45;;;;;;;5.52;100.00;98180.25;5044192;28;20461;-58
2022/11/24 01:11:26;;;;;;;17.48;2.90;;;;;;;5.47;100.00;98176.25;5047415;22;20044;-80
2022/11/24 01:13:56;;;;;;;20.10;4.03;;;;;;;5.57;100.00;98178.66;5026771;28;20040;-80
2022/11/24 01:16:27;;;;;;;23.75;3.13;;;;;;;5.63;100.00;98187.81;5023643;28;20022;-78
2022/11/24 01:18:53;;;;;;;14.55;2.90;;;;;;;5.69;100.00;98185.22;5015572;28;20474;-78
2022/11/24 01:21:19;;;;;;;15.02;3.05;;;;;;;5.59;100.00;98163.22;5014603;28;20018;-77
2022/11/24 01:23:44;;;;;;;17.77;3.95;;;;;;;5.58;100.00;98169.63;5011027;28;20040;-80
2022/11/24 01:26:13;;;;;;;14.00;3.03;;;;;;;5.65;100.00;98185.78;5014883;28;20029;-77
2022/11/24 01:28:38;;;;;;;14.00;3.10;;;;;;;5.56;100.00;98168.97;5013518;28;20129;-77
2022/11/24 01:31:06;;;;;;;11.38;2.92;;;;;;;5.67;100.00;98194.50;5012415;28;20940;-78
2022/11/24 01:33:32;;;;;;;26.08;3.63;;;;;;;5.73;100.00;98204.47;5011416;28;20034;-79
2022/11/24 01:35:58;;;;;;;18.80;3.50;;;;;;;5.49;100.00;98168.03;5011929;28;21104;-77
2022/11/24 01:38:24;;;;;;;12.43;2.60;;;;;;;5.69;100.00;98204.03;5012193;28;20093;-78
2022/11/24 01:41:00;;;;;;;14.88;3.00;;;;;;;5.74;100.00;98207.97;5011219;28;20113;-78
2022/11/24 01:43:25;;;;;;;18.85;2.33;;;;;;;5.67;100.00;98191.81;5011617;28;20030;-77
2022/11/24 01:45:51;;;;;;;12.52;2.85;;;;;;;5.74;100.00;98195.41;5008961;28;20044;-78
2022/11/24 01:48:39;;;;;;;9.32;2.30;;;;;;;5.67;100.00;98192.63;5012579;28;20026;-77
2022/11/24 01:51:21;;;;;;;12.27;2.50;;;;;;;5.66;100.00;98190.16;5012117;28;20026;-79
2022/11/24 01:53:56;;;;;;;19.58;2.28;;;;;;;5.73;100.00;98207.16;5011994;28;20034;-78
2022/11/24 01:56:22;;;;;;;11.75;2.17;;;;;;;5.66;100.00;98190.16;5011988;28;20025;-76
2022/11/24 01:58:51;;;;;;;14.52;1.65;;;;;;;5.77;100.00;98197.72;5009038;28;20034;-78
2022/11/24 02:01:16;;;;;;;9.10;2.10;;;;;;;5.76;100.00;98185.31;5016546;28;20032;-77
2022/11/24 02:03:44;;;;;;;13.10;2.10;;;;;;;5.85;100.00;98208.34;5021025;28;20117;-78
2022/11/24 02:06:12;;;;;;;12.32;2.30;;;;;;;5.74;100.00;98203.47;5011456;28;20025;-78
2022/11/24 02:08:37;;;;;;;10.80;1.83;;;;;;;5.78;100.00;98214.66;5010351;28;20025;-79
2022/11/24 02:11:04;;;;;;;14.27;1.92;;;;;;;5.65;100.00;98188.47;5016535;28;20045;-78
2022/11/24 02:13:30;;;;;;;16.02;2.17;;;;;;;5.59;100.00;98194.59;5010731;28;20496;-79
2022/11/24 02:15:56;;;;;;;13.75;2.40;;;;;;;5.60;100.00;98197.06;5003375;28;20059;-78
2022/11/24 02:18:21;;;;;;;11.88;2.17;;;;;;;5.58;100.00;98200.97;5009988;28;20547;-78
2022/11/24 02:20:47;;;;;;;17.45;2.78;;;;;;;5.61;100.00;98209.50;5010552;28;20484;-78
2022/11/24 02:23:21;;;;;;;10.82;1.90;;;;;;;5.68;100.00;98214.94;5012738;28;20030;-78
2022/11/24 02:25:56;;;;;;;9.20;2.10;;;;;;;5.67;100.00;98208.72;5010148;28;20033;-78
2022/11/24 02:28:24;;;;;;;13.23;1.80;;;;;;;5.39;100.00;98172.84;5009611;28;20040;-78
2022/11/24 02:30:51;;;;;;;8.47;1.50;;;;;;;5.59;100.00;98199.97;5011144;28;20059;-79
2022/11/24 02:33:18;;;;;;;8.52;1.65;;;;;;;5.74;100.00;98221.41;5011184;28;20273;-78
2022/11/24 02:35:43;;;;;;;8.23;1.48;;;;;;;5.66;100.00;98198.19;5010602;28;20120;-78
2022/11/24 02:38:12;;;;;;;9.73;1.88;;;;;;;5.76;100.00;98211.31;5011099;28;20053;-78
2022/11/24 02:40:40;;;;;;;11.50;1.65;;;;;;;5.71;100.00;98187.72;5010003;28;20152;-78
2022/11/24 02:43:12;;;;;;;18.50;2.40;;;;;;;5.91;100.00;98204.91;5010029;28;20030;-78
2022/11/24 02:45:38;;;;;;;7.05;1.45;;;;;;;5.99;100.00;98198.63;5005622;28;20054;-78
2022/11/24 02:48:04;;;;;;;13.13;1.65;;;;;;;5.98;100.00;98193.47;5010429;28;20522;-78
2022/11/24 02:50:29;;;;;;;14.43;1.70;;;;;;;5.96;100.00;98196.31;5010658;28;20025;-78
2022/11/24 02:52:54;;;;;;;8.30;1.35;;;;;;;5.82;100.00;98189.94;5009253;28;20113;-77
2022/11/24 02:55:20;;;;;;;5.65;1.67;;;;;;;5.69;100.00;98171.81;5013973;28;20033;-78
2022/11/24 02:57:46;;;;;;;13.05;1.40;;;;;;;5.86;100.00;98201.13;5011070;28;20373;-78
2022/11/24 03:00:11;;;;;;;8.20;1.60;;;;;;;5.86;100.00;98201.94;5011542;28;20087;-78
2022/11/24 03:02:37;;;;;;;5.28;1.52;;;;;;;5.78;100.00;98177.91;5006681;28;20119;-78
2022/11/24 03:05:02;;;;;;;14.98;1.80;;;;;;;5.93;100.00;98202.91;5010876;28;20033;-79
2022/11/24 03:07:28;;;;;;;8.48;1.90;;;;;;;5.78;100.00;98185.94;5010801;28;20026;-79
2022/11/24 03:09:53;;;;;;;7.97;1.45;;;;;;;5.79;100.00;98198.38;5008398;28;20026;-78
2022/11/24 03:12:18;;;;;;;8.27;1.60;;;;;;;5.57;100.00;98164.44;5004721;28;20045;-78
2022/11/24 03:14:44;;;;;;;9.60;1.85;;;;;;;5.71;100.00;98185.03;5004982;28;20029;-78
2022/11/24 03:17:09;;;;;;;8.57;1.48;;;;;;;5.76;100.00;98206.78;5014237;28;20033;-77
2022/11/24 03:19:34;;;;;;;12.82;1.65;;;;;;;5.49;100.00;98179.59;5013787;28;20111;-78
2022/11/24 03:22:00;;;;;;;10.75;1.60;;;;;;;5.15;100.00;98149.84;5015377;28;20022;-78
2022/11/24 03:24:25;;;;;;;7.15;1.55;;;;;;;5.30;100.00;98169.44;5021110;28;20025;-78
2022/11/24 03:26:50;;;;;;;7.35;1.67;;;;;;;5.51;100.00;98221.53;5013099;28;20096;-78
2022/11/24 03:29:16;;;;;;;10.57;1.92;;;;;;;5.55;100.00;98236.22;5016535;28;20030;-79
2022/11/24 03:31:41;;;;;;;8.68;1.98;;;;;;;5.41;100.00;98192.28;5012844;28;20025;-79
2022/11/24 03:34:06;;;;;;;14.38;2.30;;;;;;;5.64;100.00;98230.59;5014080;28;20057;-77
2022/11/24 03:36:32;;;;;;;7.57;1.85;;;;;;;5.61;100.00;98230.13;5013899;28;20033;-77
2022/11/24 03:38:57;;;;;;;8.38;1.50;;;;;;;5.45;100.00;98190.91;5006702;28;20026;-78
2022/11/24 03:41:23;;;;;;;6.82;1.40;;;;;;;5.85;100.00;98245.94;5015547;28;20476;-78
2022/11/24 03:43:48;;;;;;;8.63;1.63;;;;;;;5.82;100.00;98226.69;5018993;28;20038;-78
2022/11/24 03:46:13;;;;;;;7.38;1.52;;;;;;;5.68;100.00;98196.16;5017254;28;20083;-78
2022/11/24 03:48:39;;;;;;;7.13;1.65;;;;;;;5.89;100.00;98228.44;5009951;28;20026;-78
2022/11/24 03:51:04;;;;;;;9.20;1.42;;;;;;;5.74;100.00;98198.09;5012957;28;20056;-77
2022/11/24 03:53:31;;;;;;;9.45;1.65;;;;;;;6.01;100.00;98236.88;5015675;28;20392;-77
2022/11/24 03:55:56;;;;;;;7.78;1.92;;;;;;;6.01;100.00;98249.47;5017134;28;20503;-77
2022/11/24 03:58:23;;;;;;;10.00;1.60;;;;;;;6.01;100.00;98252.97;5009625;28;20034;-77
2022/11/24 04:00:50;;;;;;;17.58;1.77;;;;;;;6.03;100.00;98250.13;5012589;28;20026;-77
2022/11/24 04:03:15;;;;;;;12.55;1.98;;;;;;;6.06;100.00;98244.38;5014346;28;20476;-78
2022/11/24 04:05:41;;;;;;;7.78;1.50;;;;;;;6.07;100.00;98257.59;5014440;28;20033;-78
2022/11/24 04:08:07;;;;;;;8.15;1.90;;;;;;;5.85;100.00;98218.25;5013524;28;20026;-77
2022/11/24 04:10:35;;;;;;;8.23;1.17;;;;;;;6.15;100.00;98251.28;5015735;28;20042;-77
2022/11/24 04:13:00;;;;;;;9.05;1.50;;;;;;;6.02;100.00;98235.00;5005981;28;20037;-78
2022/11/24 04:15:26;;;;;;;8.65;1.85;;;;;;;6.07;100.00;98240.66;5013852;28;20025;-78
2022/11/24 04:17:53;;;;;;;9.88;2.25;;;;;;;6.19;100.00;98257.94;5013374;28;20558;-77
2022/11/24 04:20:19;;;;;;;6.38;1.48;;;;;;;6.01;100.00;98231.50;5020878;28;20029;-78
2022/11/24 04:22:44;;;;;;;6.97;1.35;;;;;;;6.09;100.00;98244.81;5015638;28;20037;-77
2022/11/24 04:25:10;;;;;;;5.60;1.02;;;;;;;6.16;100.00;98261.00;5015361;28;20037;-78
2022/11/24 04:27:36;;;;;;;7.93;1.73;;;;;;;6.02;100.00;98264.53;5014216;28;20026;-77
2022/11/24 04:30:03;;;;;;;7.55;2.00;;;;;;;5.93;100.00;98253.91;5005712;28;20060;-77
2022/11/24 04:32:29;;;;;;;4.38;1.40;;;;;;;5.91;100.00;98255.09;5015050;28;20032;-78
2022/11/24 04:34:54;;;;;;;10.88;1.35;;;;;;;5.87;100.00;98262.69;5015083;28;20105;-78
2022/11/24 04:37:19;;;;;;;8.00;1.30;;;;;;;5.86;100.00;98269.06;5014593;28;20029;-78
2022/11/24 04:39:45;;;;;;;5.80;1.75;;;;;;;5.89;100.00;98257.13;5011793;28;20057;-78
2022/11/24 04:42:11;;;;;;;8.38;1.92;;;;;;;6.10;100.00;98275.19;5014834;28;20042;-78
2022/11/24 04:44:36;;;;;;;9.82;1.30;;;;;;;6.08;100.00;98270.00;5013869;28;20034;-78
2022/11/24 04:47:01;;;;;;;5.13;0.98;;;;;;;6.19;100.00;98270.53;5018313;28;20025;-78
2022/11/24 04:49:27;;;;;;;6.85;1.40;;;;;;;6.10;100.00;98253.69;5025390;28;20049;-78
2022/11/24 04:51:52;;;;;;;4.88;1.20;;;;;;;6.11;100.00;98258.88;5012678;28;20018;-79
2022/11/24 04:54:17;;;;;;;6.97;1.58;;;;;;;6.16;100.00;98258.31;4996355;28;20056;-78
2022/11/24 04:56:43;;;;;;;6.93;1.63;;;;;;;5.87;100.00;98222.41;5003191;28;20447;-78
2022/11/24 04:59:13;;;;;;;4.47;1.30;;;;;;;6.22;100.00;98289.78;5003507;28;20476;-78
2022/11/24 05:01:40;;;;;;;9.00;2.22;;;;;;;6.11;100.00;98282.22;5008230;28;20018;-78
2022/11/24 05:04:05;;;;;;;9.02;1.85;;;;;;;6.14;100.00;98292.59;5004020;28;20064;-78
2022/11/24 05:06:32;;;;;;;9.13;1.23;;;;;;;6.12;100.00;98286.56;5011874;28;20069;-78
2022/11/24 05:08:57;;;;;;;4.22;0.90;;;;;;;5.96;100.00;98266.13;5011950;28;20040;-78
2022/11/24 05:11:22;;;;;;;7.55;1.30;;;;;;;6.04;100.00;98275.94;5009702;28;20022;-78
2022/11/24 05:13:48;;;;;;;9.40;1.50;;;;;;;6.11;100.00;98293.78;5012664;28;20026;-78
2022/11/24 05:16:13;;;;;;;6.93;1.10;;;;;;;6.11;100.00;98311.78;5009753;28;20022;-77
2022/11/24 05:18:39;;;;;;;5.95;1.98;;;;;;;6.05;100.00;98307.13;5005498;28;20026;-78
2022/11/24 05:21:04;;;;;;;6.30;1.60;;;;;;;6.13;100.00;98321.31;5011736;28;20030;-77
2022/11/24 05:23:30;;;;;;;5.43;1.48;;;;;;;6.10;100.00;98327.06;5012786;28;20033;-78
2022/11/24 05:25:59;;;;;;;8.48;1.50;;;;;;;6.01;100.00;98319.28;5017433;28;20037;-77
2022/11/24 05:28:25;;;;;;;8.38;1.55;;;;;;;6.00;100.00;98331.03;5018267;28;20018;-77
2022/11/24 05:30:51;;;;;;;6.55;1.48;;;;;;;5.86;100.00;98305.81;5010718;28;20021;-79
2022/11/24 05:33:21;;;;;;;11.68;2.13;;;;;;;5.99;100.00;98332.06;5009593;28;20029;-77
2022/11/24 05:35:48;;;;;;;11.23;2.08;;;;;;;5.82;100.00;98331.38;5010668;28;20483;-78
2022/11/24 05:38:16;;;;;;;8.07;2.15;;;;;;;5.69;100.00;98326.66;5011857;28;20120;-78
2022/11/24 05:40:42;;;;;;;2.88;1.30;;;;;;;5.72;100.00;98326.28;5010383;28;20030;-79
2022/11/24 05:43:13;;;;;;;7.63;1.88;;;;;;;5.78;100.00;98332.75;5013240;28;20492;-78
2022/11/24 05:45:38;;;;;;;8.95;2.92;;;;;;;5.87;100.00;98337.03;5010371;28;21373;-78
2022/11/24 05:48:06;;;;;;;12.52;4.13;;;;;;;5.78;100.00;98317.47;5011530;28;20026;-79
2022/11/24 05:50:31;;;;;;;9.68;3.47;;;;;;;5.55;100.00;98282.66;5013617;28;20107;-78
2022/11/24 05:53:01;;;;;;;10.85;3.35;;;;;;;5.78;100.00;98312.09;5002975;28;20058;-78
2022/11/24 05:55:26;;;;;;;12.40;3.45;;;;;;;5.92;100.00;98329.22;5008456;28;20060;-77
2022/11/24 05:57:58;;;;;;;10.10;2.75;;;;;;;5.90;100.00;98321.38;5016452;28;20061;-78
2022/11/24 06:00:23;;;;;;;10.52;3.05;;;;;;;5.88;100.00;98309.16;5012596;28;20161;-77
2022/11/24 06:02:48;;;;;;;10.00;2.25;;;;;;;5.92;100.00;98322.03;5012102;28;20112;-78
2022/11/24 06:05:14;;;;;;;8.68;2.13;;;;;;;5.94;100.00;98313.81;5008978;28;20042;-79
2022/11/24 06:07:39;;;;;;;7.47;1.95;;;;;;;5.98;100.00;98312.44;5008744;28;20030;-78
2022/11/24 06:10:04;;;;;;;13.00;1.67;;;;;;;5.93;100.00;98304.06;5014981;28;20032;-79
2022/11/24 06:12:30;;;;;;;10.38;2.42;;;;;;;6.10;100.00;98321.69;5019487;28;20025;-83
2022/11/24 06:14:55;;;;;;;11.10;2.97;;;;;;;5.85;100.00;98296.94;5009705;28;20458;-82
2022/11/24 06:17:21;;;;;;;12.82;1.40;;;;;;;6.10;100.00;98334.25;5012297;28;20041;-83
2022/11/24 06:19:50;;;;;;;14.77;2.55;;;;;;;6.07;100.00;98326.56;5013869;28;20032;-81
2022/11/24 06:22:17;;;;;;;12.85;3.42;;;;;;;6.05;100.00;98323.25;5015264;28;20022;-82
2022/11/24 06:24:43;;;;;;;11.32;2.95;;;;;;;5.92;100.00;98297.00;5014220;28;20064;-82
2022/11/24 06:27:08;;;;;;;23.23;4.28;;;;;;;6.04;100.00;98318.91;5016027;28;20025;-83
2022/11/24 06:29:33;;;;;;;11.73;1.75;;;;;;;6.15;100.00;98329.16;5017069;28;20025;-83
2022/11/24 06:31:59;;;;;;;8.68;1.80;;;;;;;6.05;100.00;98307.13;5012697;28;20026;-83
2022/11/24 06:34:25;;;;;;;11.60;2.20;;;;;;;6.05;100.00;98309.81;5010897;28;20502;-84
2022/11/24 06:36:50;;;;;;;8.10;2.03;;;;;;;6.00;100.00;98309.53;5016524;28;20030;-81
2022/11/24 06:39:16;;;;;;;10.13;2.20;;;;;;;5.98;100.00;98306.22;5021625;28;20076;-80
2022/11/24 06:41:41;;;;;;;14.38;2.05;;;;;;;6.19;100.00;98340.38;5010049;28;20089;-82
2022/11/24 06:44:07;;;;;;;11.40;2.20;;;;;;;5.97;100.00;98310.75;5015402;28;20033;-84
2022/11/24 06:46:32;;;;;;;6.85;2.28;;;;;;;6.11;100.00;98349.38;5014134;28;20030;-84
2022/11/24 06:48:58;;;;;;;11.63;2.08;;;;;;;5.87;100.00;98299.44;5023500;28;20060;-87
2022/11/24 06:51:25;;;;;;;9.73;2.70;;;;;;;6.02;100.00;98327.13;5039078;28;20057;-84
2022/11/24 06:53:50;;;;;;;7.57;2.15;;;;;;;6.01;100.00;98338.91;5031403;28;20006;-84
2022/11/24 06:56:18;;;;;;;10.40;2.35;;;;;;;6.14;100.00;98357.06;5026603;28;20084;-87
2022/11/24 06:58:46;;;;;;;17.27;3.05;;;;;;;6.28;100.00;98382.22;5027575;28;20061;-87
2022/11/24 07:01:26;;;;;;;12.18;1.70;;;;;;;6.30;100.00;98372.97;5025580;28;20117;-86
2022/11/24 07:03:53;;;;;;;8.05;1.50;;;;;;;6.28;100.00;98391.13;5020350;28;20057;-80
2022/11/24 07:06:19;;;;;;;8.20;1.88;;;;;;;6.21;100.00;98375.94;5014751;28;20384;-72
2022/11/24 07:08:45;;;;;;;7.80;2.10;;;;;;;6.22;100.00;98391.03;5011615;28;20032;-72
2022/11/24 07:11:14;;;;;;;14.23;2.25;;;;;;;6.04;100.00;98361.88;5013150;28;20021;-72
2022/11/24 07:13:43;;;;;;;9.75;2.58;;;;;;;6.08;100.00;98387.34;5014019;28;20029;-73
2022/11/24 07:16:22;;;;;;;15.55;2.35;;;;;;;6.20;100.00;98401.13;4996222;28;20099;-72
2022/11/24 07:18:50;;;;;;;15.07;2.63;;;;;;;6.20;100.00;98412.72;5018190;28;20064;-72
2022/11/24 07:21:16;;;;;;;11.73;2.25;;;;;;;6.13;100.00;98412.63;5007490;28;20033;-72
2022/11/24 07:23:42;;;;;;;17.63;3.05;;;;;;;6.16;100.00;98419.47;5009906;28;20113;-72
2022/11/24 07:26:09;;;;;;;17.27;3.42;;;;;;;6.05;100.00;98414.53;5009925;28;20575;-72
2022/11/24 07:28:35;;;;;;;11.70;3.03;;;;;;;6.05;100.00;98415.41;5010020;28;20139;-72
2022/11/24 07:31:09;;;;;;;8.93;2.08;;;;;;;6.10;100.00;98439.00;5009408;28;20026;-72
2022/11/24 07:34:13;;;;;;;20.58;2.22;;;;;;;6.07;100.00;98444.75;5013976;28;20050;-83
2022/11/24 07:36:39;;;;;;;21.10;3.05;;;;;;;5.71;100.00;98402.44;5017241;28;20139;-75
2022/11/24 07:39:05;;;;;;;11.95;2.40;;;;;;;5.91;100.00;98441.16;5027676;28;20496;-77
2022/11/24 07:41:31;;;;;;;13.35;2.97;;;;;;;5.96;100.00;98474.72;5017592;28;20033;-79
2022/11/24 07:43:56;;;;;;;16.88;2.35;;;;;;;5.85;100.00;98451.81;5019249;28;20018;-82
2022/11/24 07:46:21;;;;;;;16.88;3.30;;;;;;;5.89;100.00;98475.44;5016608;28;20547;-86
2022/11/24 07:48:47;;;;;;;12.40;2.70;;;;;;;5.86;100.00;98467.72;5011380;28;20516;-72
2022/11/24 07:51:13;;;;;;;13.02;3.55;;;;;;;5.73;100.00;98448.72;5014745;28;20030;-73
2022/11/24 08:01:10;;;;;;;18.65;3.33;;;;;;;5.97;100.00;98493.34;5026361;28;20037;-87
2022/11/24 08:03:51;;;;;;;16.15;3.20;;;;;;;5.85;100.00;98484.03;5021817;28;20042;-83
2022/11/24 08:09:42;;;;;;;14.40;3.00;;;;;;;5.92;100.00;98475.06;5034364;28;20049;-79
2022/11/24 08:12:08;;;;;;;19.17;3.13;;;;;;;6.02;100.00;98484.75;5028682;28;20038;-71
2022/11/24 08:14:53;;;;;;;18.25;3.08;;;;;;;6.07;100.00;98477.78;5027200;28;20078;-83
2022/11/24 08:17:18;;;;;;;11.25;2.33;;;;;;;6.14;100.00;98485.97;5007784;28;20044;-84
2022/11/24 08:20:04;;;;;;;19.55;3.03;;;;;;;6.05;100.00;98468.25;5015621;28;20373;-80
2022/11/24 08:22:30;;;;;;;6.40;2.25;;;;;;;6.21;100.00;98492.28;5015448;28;20080;-79
2022/11/24 08:24:55;;;;;;;15.10;2.40;;;;;;;6.15;100.00;98479.56;5012008;28;20030;-71
2022/11/24 08:27:20;;;;;;;16.23;3.03;;;;;;;6.22;100.00;98490.44;5015882;28;20504;-77
2022/11/24 08:29:46;;;;;;;9.48;1.90;;;;;;;6.21;100.00;98486.91;5010431;28;20032;-78
2022/11/24 08:33:01;;;;;;;9.35;1.58;;;;;;;6.40;100.00;98514.28;5018315;28;20489;-82
2022/11/24 08:35:47;;;;;;;3.22;1.60;;;;;;;6.31;100.00;98484.81;5021625;28;20032;-81
2022/11/24 08:38:12;;;;;;;10.05;1.20;;;;;;;6.39;100.00;98496.47;5011674;28;20124;-80
2022/11/24 08:40:37;;;;;;;4.90;1.60;;;;;;;6.50;100.00;98506.78;5022486;28;20476;-79
2022/11/24 08:43:03;;;;;;;11.32;1.35;;;;;;;6.42;100.00;98482.66;5021271;28;20072;-80
2022/11/24 08:45:28;;;;;;;7.97;1.52;;;;;;;6.45;100.00;98509.19;5015860;28;20048;-80
2022/11/24 08:47:55;;;;;;;11.05;1.70;;;;;;;6.52;100.00;98518.16;5017030;28;20022;-81
2022/11/24 08:50:22;;;;;;;3.22;1.20;;;;;;;6.51;100.00;98505.75;5014441;28;20030;-82
2022/11/24 08:52:49;;;;;;;7.03;1.15;;;;;;;6.42;100.00;98493.41;5017178;28;20018;-77
2022/11/24 08:55:15;;;;;;;5.50;1.77;;;;;;;6.69;100.00;98514.28;5015380;28;20038;-83
2022/11/24 08:57:40;;;;;;;5.68;2.25;;;;;;;6.64;100.00;98507.78;4982352;28;20033;-80
2022/11/24 09:00:06;;;;;;;5.85;1.00;;;;;;;6.75;100.00;98513.53;5011476;28;20025;-74
2022/11/24 09:02:31;;;;;;;5.05;0.88;;;;;;;6.68;100.00;98501.00;5010885;28;20040;-73
2022/11/24 09:04:57;;;;;;;5.22;1.00;;;;;;;6.76;100.00;98523.28;5013567;28;20033;-80
2022/11/24 09:07:23;;;;;;;4.15;0.90;;;;;;;6.76;100.00;98528.66;5014071;28;20037;-73
2022/11/24 09:09:48;;;;;;;2.88;0.80;;;;;;;6.69;100.00;98518.81;5013259;28;20025;-80
2022/11/24 09:12:14;;;;;;;3.28;0.60;;;;;;;6.93;100.00;98539.22;5008737;28;20024;-76
2022/11/24 09:14:39;;;;;;;3.83;0.45;;;;;;;6.97;100.00;98529.75;5014905;28;20511;-79
2022/11/24 09:17:05;;;;;;;2.90;0.68;;;;;;;7.09;100.00;98530.09;5012684;28;20026;-77
2022/11/24 09:19:30;;;;;;;2.90;0.77;;;;;;;7.21;100.00;98510.59;5011439;28;20116;-80
2022/11/24 09:21:55;;;;;;;2.53;0.80;;;;;;;7.61;100.00;98532.56;5013973;28;20026;-80
2022/11/24 09:24:20;;;;;;;5.05;0.80;;;;;;;7.84;100.00;98539.66;5016956;28;20472;-80
2022/11/24 09:26:46;;;;;;;2.50;0.90;;;;;;;7.75;100.00;98538.09;5014890;28;20046;-72
2022/11/24 09:29:12;;;;;;;2.53;0.95;;;;;;;7.70;100.00;98538.66;5007265;28;20033;-78
2022/11/24 09:31:38;;;;;;;2.83;0.55;;;;;;;7.80;100.00;98523.03;5009977;28;20083;-78
2022/11/24 09:34:06;;;;;;;0.95;0.45;;;;;;;7.71;100.00;98550.28;5010617;28;20025;-78
2022/11/24 09:36:31;;;;;;;4.63;0.70;;;;;;;7.36;100.00;98518.66;5017188;28;20079;-80
2022/11/24 09:38:58;;;;;;;5.30;1.30;;;;;;;7.46;100.00;98547.94;5016215;28;20029;-78
2022/11/24 09:41:31;;;;;;;4.82;0.80;;;;;;;7.51;100.00;98550.06;5007006;28;20033;-78
2022/11/24 09:44:05;;;;;;;3.53;1.17;;;;;;;7.41;100.00;98543.13;5013140;28;20026;-81
2022/11/24 09:46:59;;;;;;;1.40;0.85;;;;;;;7.55;100.00;98559.44;5014693;28;20111;-79
2022/11/24 09:49:45;;;;;;;1.20;0.40;;;;;;;7.34;100.00;98566.44;4994272;28;20033;-77
2022/11/24 09:52:18;;;;;;;2.08;0.98;;;;;;;7.29;100.00;98570.72;4998632;28;20108;-75
2022/11/24 09:54:52;;;;;;;1.88;0.98;;;;;;;7.24;100.00;98569.41;5014865;28;20082;-75
2022/11/24 09:57:20;;;;;;;2.42;1.05;;;;;;;7.22;100.00;98574.13;5010193;28;20342;-78
2022/11/24 09:59:46;;;;;;;3.08;0.90;;;;;;;7.25;100.00;98579.16;5007026;28;20101;-83
2022/11/24 10:02:12;;;;;;;2.08;0.90;;;;;;;7.20;100.00;98567.28;5004464;28;20108;-74
2022/11/24 10:04:42;;;;;;;2.50;0.82;;;;;;;7.43;100.00;98586.81;5013920;28;20661;-80
2022/11/24 10:07:28;;;;;;;2.33;1.13;;;;;;;7.46;100.00;98583.75;5012366;28;20022;-81
2022/11/24 10:10:16;;;;;;;2.38;0.77;;;;;;;7.81;100.00;98597.41;5011651;28;20474;-73
2022/11/24 10:13:21;;;;;;;2.35;0.80;;;;;;;7.88;100.00;98606.38;5008467;28;20042;-83
2022/11/24 10:16:05;;;;;;;2.90;0.90;;;;;;;8.08;100.00;98606.59;5006117;28;20049;-75
2022/11/24 10:18:42;;;;;;;2.05;0.50;;;;;;;8.53;100.00;98607.22;5007653;28;20588;-79
2022/11/24 10:21:29;;;;;;;2.45;0.50;;;;;;;8.65;100.00;98569.78;5013859;28;20029;-76
2022/11/24 10:24:17;;;;;;;1.25;0.38;;;;;;;8.89;100.00;98575.75;5010254;28;20550;-68
2022/11/24 10:26:50;;;;;;;1.52;0.60;;;;;;;8.78;100.00;98574.44;5012120;28;20022;-80
2022/11/24 10:29:29;;;;;;;0.80;0.50;;;;;;;8.47;100.00;98572.16;5009035;28;20030;-74
2022/11/24 10:31:55;;;;;;;2.05;0.50;;;;;;;8.48;100.00;98587.28;5006253;28;20057;-80
2022/11/24 10:34:28;;;;;;;3.40;0.82;;;;;;;8.58;100.00;98578.88;5010738;28;20069;-74
2022/11/24 10:37:09;;;;;;;1.40;0.60;;;;;;;8.37;100.00;98561.66;5008430;28;20038;-72
2022/11/24 10:39:45;;;;;;;4.07;0.30;;;;;;;8.45;100.00;98587.69;5006743;28;20026;-72
2022/11/24 10:42:26;;;;;;;0.50;0.30;;;;;;;8.66;100.00;98579.53;5001801;28;20033;-73
2022/11/24 10:45:08;;;;;;;1.42;0.50;;;;;;;8.86;100.00;98560.81;5009263;28;20033;-73
2022/11/24 10:47:33;;;;;;;0.75;0.20;;;;;;;9.22;100.00;98540.84;5008488;28;20025;-73
2022/11/24 10:50:05;;;;;;;0.77;0.20;;;;;;;9.92;100.00;98551.44;5000650;28;20026;-73
2022/11/24 10:52:39;;;;;;;2.03;0.50;;;;;;;10.28;100.00;98541.13;5025749;28;20496;-73
2022/11/24 10:55:05;;;;;;;1.02;0.60;;;;;;;10.50;100.00;98554.41;5005906;28;20129;-73
2022/11/24 10:57:33;;;;;;;2.38;0.47;;;;;;;12.76;100.00;98539.75;5004940;28;20887;-74
2022/11/24 11:00:00;;;;;;;2.83;0.30;;;;;;;14.46;100.00;98529.75;5003065;28;20500;-71
2022/11/24 11:02:31;;;;;;;0.77;0.35;;;;;;;16.91;100.00;98538.44;5008108;28;20026;-71
2022/11/24 11:04:57;;;;;;;1.10;0.30;;;;;;;19.03;82.30;98534.66;5004870;28;20034;-71
2022/11/24 11:07:25;;;;;;;0.63;0.30;;;;;;;18.54;69.63;98536.72;5005240;28;20037;-72
2022/11/24 11:10:18;;;;;;;1.35;0.60;;;;;;;17.10;80.55;98547.97;5007871;28;20029;-72
2022/11/24 11:12:44;;;;;;;2.00;0.43;;;;;;;19.16;74.40;98519.63;5008969;28;20037;-72
2022/11/24 11:15:24;;;;;;;1.10;0.52;;;;;;;18.85;66.52;98535.06;5018349;28;20030;-71
2022/11/24 11:17:53;;;;;;;0.82;0.52;;;;;;;16.92;72.88;98540.06;5006260;28;20644;-71
2022/11/24 11:20:26;;;;;;;2.55;0.60;;;;;;;15.13;97.86;98537.59;5007811;28;20018;-72
2022/11/24 11:22:53;;;;;;;1.17;0.50;;;;;;;14.93;100.00;98537.16;5008833;28;20034;-72
2022/11/24 11:25:28;;;;;;;2.58;0.70;;;;;;;14.16;100.00;98540.72;5009131;28;20026;-72
2022/11/24 11:28:24;;;;;;;1.67;0.52;;;;;;;13.30;100.00;98537.31;5007044;28;20033;-72
2022/11/24 11:31:18;;;;;;;1.05;0.32;;;;;;;13.08;100.00;98547.78;5001261;28;20109;-72
2022/11/24 11:33:57;;;;;;;2.55;0.70;;;;;;;12.59;100.00;98544.06;5005747;28;20129;-72
2022/11/24 11:36:23;;;;;;;1.92;0.30;;;;;;;12.69;100.00;98547.94;5007405;28;20033;-72
2022/11/24 11:38:49;;;;;;;3.38;0.70;;;;;;;12.89;100.00;98550.47;5010789;28;20053;-72
2022/11/24 11:41:44;;;;;;;4.57;0.85;;;;;;;12.54;100.00;98544.75;5004069;28;20483;-73
2022/11/24 11:44:43;;;;;;;5.57;0.80;;;;;;;12.43;100.00;98540.03;5009612;28;20065;-73
2022/11/24 11:47:22;;;;;;;2.13;0.70;;;;;;;12.33;100.00;98555.97;5004914;28;20045;-72
2022/11/24 11:49:48;;;;;;;;;;;;;;;12.00;100.00;98554.34;5012513;28;20053;-72